• Join FlightAware (Why Join?)
  • Login
  • US Flag 
02:31PM EDT


 

Airport Tracker/Info


-or-


 

Live Flight TrackerFlight Track Log ✈ N428CD ✈ 25-Apr-2013 ✈ KRST - KAZO

Flight Track Log - Related Links

Times and Time Zones

All times are in EDT time to prevent confusion due to time zone crossing. See the N428CD flight status page for this flight to view local times or setup timezone preferences in your user account.

Time Position Orientation Groundspeed Altitude Reporting Facility
EDT Latitude Longitude Course Direction KTS MPH feet Rate Location/Type
06:55PM 43.9403 -92.4139 104° East 134 154 4,100  Level Minneapolis Center
06:56PM 43.9300 -92.3636 106° East 137 158 5,100 960 Climbing Minneapolis Center
06:57PM 43.9194 -92.3064 104° East 143 165 6,100 840 Climbing Minneapolis Center
06:58PM 43.9089 -92.2492 104° East 154 177 6,900 780 Climbing Minneapolis Center
06:59PM 43.8083 -92.0495 103° East  Level FlightAware Approximate
06:59PM 43.8933 -92.1842 108° East 166 191 7,800  Level Minneapolis Center
07:00PM 43.7952 -91.9736 104° East  Level FlightAware Approximate
07:00PM 43.8767 -92.1136 108° East 179 206 8,700  Level Minneapolis Center
07:01PM 43.8606 -92.0461 108° East 185 213 9,500 840 Climbing Minneapolis Center
07:02PM 43.8433 -91.9681 107° East 197 227 10,500 900 Climbing Minneapolis Center
07:03PM 43.8275 -91.8964 107° East 198 228 11,400 900 Climbing Minneapolis Center
07:04PM 43.8103 -91.8186 107° East 196 226 12,400 780 Climbing Minneapolis Center
07:05PM 43.7950 -91.7469 106° East 197 227 13,100 720 Climbing Minneapolis Center
07:06PM 43.7800 -91.6794 107° East 198 228 13,900 840 Climbing Minneapolis Center
07:07PM 43.7633 -91.6086 108° East 196 226 14,900 960 Climbing Minneapolis Center
07:08PM 43.7444 -91.5214 107° East 197 227 15,900 960 Climbing Minneapolis Center
07:09PM 43.7289 -91.4500 107° East 196 226 16,900 540 Climbing Minneapolis Center
07:10PM 43.7106 -91.3717 108° East 207 238 17,100  Climbing Minneapolis Center
07:11PM 43.6875 -91.2675 107° East 240 276 17,000  Descending Minneapolis Center
07:12PM 43.6694 -91.1853 107° East 235 270 17,100  Climbing Minneapolis Center
07:13PM 43.6503 -91.0931 106° East 238 274 17,000 -60 Descending Minneapolis Center
07:14PM 43.6300 -91.0042 107° East 235 270 17,000  Level Minneapolis Center
07:15PM 43.6103 -90.9172 107° East 229 264 17,000  Level Minneapolis Center
07:16PM 43.5897 -90.8283 108° East 233 268 17,000  Level Minneapolis Center
07:17PM 43.5700 -90.7394 107° East 233 268 17,000  Level Minneapolis Center
07:18PM 43.5494 -90.6492 107° East 237 273 17,000  Level Minneapolis Center
07:19PM 43.5286 -90.5619 108° East 232 267 17,000  Level Minneapolis Center
07:21PM 43.5097 -90.4803 108° East 233 268 17,000  Level Minneapolis Center
07:22PM 43.4894 -90.3925 108° East 231 266 17,000  Level Minneapolis Center
07:23PM 43.4692 -90.3044 108° East 231 266 17,000  Level Minneapolis Center
07:24PM 43.4483 -90.2156 108° East 234 269 17,000  Level Minneapolis Center
07:25PM 43.4275 -90.1278 108° East 233 268 17,000  Level Minneapolis Center
07:26PM 43.4069 -90.0386 108° East 234 269 17,000  Level Minneapolis Center
07:27PM 43.3853 -89.9503 109° East 234 269 17,000  Level Minneapolis Center
07:27PM 43.3697 -89.8878 109° East 232 267 17,000  Level Chicago Center
07:29PM 43.3492 -89.8042 109° East 232 267 17,000  Level Chicago Center
07:30PM 43.3286 -89.7186 108° East 235 270 17,000  Level Chicago Center
07:31PM 43.3089 -89.6342 108° East 233 268 17,000  Level Chicago Center
07:32PM 43.2839 -89.5339 109° East 236 272 17,000  Level Chicago Center
07:33PM 43.2633 -89.4489 108° East 235 270 17,000  Level Chicago Center
07:34PM 43.2428 -89.3633 108° East 236 272 17,000  Level Chicago Center
07:35PM 43.2219 -89.2797 109° East 234 269 17,000  Level Chicago Center
07:36PM 43.2014 -89.1953 108° East 234 269 17,000  Level Chicago Center
07:37PM 43.1775 -89.0964 108° East 235 270 17,000  Level Chicago Center
07:38PM 43.1569 -89.0122 108° East 234 269 17,000  Level Chicago Center
07:39PM 43.1336 -88.9314 112° Southeast 230 265 17,000  Level Chicago Center
07:40PM 43.1306 -88.8467 93° East 224 258 17,000  Level Chicago Center
07:41PM 43.1347 -88.7622 86° East 223 257 17,000  Level Chicago Center
07:42PM 43.1378 -88.6650 88° East 222 255 17,000  Level Chicago Center
07:43PM 43.1375 -88.5819 90° East 222 255 17,000  Level Chicago Center
07:44PM 43.1136 -88.5008 112° Southeast 230 265 17,000  Level Chicago Center
07:45PM 43.0892 -88.4186 112° Southeast 234 269 17,000  Level Chicago Center
07:46PM 43.0661 -88.3350 111° Southeast 235 270 17,000  Level Chicago Center
07:47PM 43.0394 -88.2392 111° Southeast 231 266 17,000  Level Chicago Center
07:48PM 43.0161 -88.1592 112° Southeast 228 262 17,000  Level Chicago Center
07:49PM 42.9925 -88.0767 111° Southeast 233 268 17,000  Level Chicago Center
07:50PM 42.9694 -87.9958 111° Southeast 230 265 17,000  Level Chicago Center
07:51PM 42.9461 -87.9150 111° Southeast 229 264 17,000  Level Chicago Center
07:52PM 42.9186 -87.8200 112° Southeast 231 266 17,000  Level Chicago Center
07:53PM 42.8944 -87.7378 112° Southeast 234 269 17,000  Level Chicago Center
07:54PM 42.8708 -87.6553 111° Southeast 233 268 17,000  Level Chicago Center
07:55PM 42.8475 -87.5725 111° Southeast 233 268 17,000  Level Chicago Center
07:56PM 42.8222 -87.4886 112° Southeast 239 275 17,000  Level Chicago Center
07:58PM 42.7933 -87.3933 112° Southeast 234 269 17,000  Level Chicago Center
07:59PM 42.7711 -87.3131 111° Southeast 230 265 17,000  Level Chicago Center
08:00PM 42.7467 -87.2306 112° Southeast 235 270 17,000  Level Chicago Center
08:01PM 42.7211 -87.1469 113° Southeast 238 274 17,000  Level Chicago Center
08:02PM 42.6972 -87.0661 112° Southeast 234 269 17,000  Level Chicago Center
08:03PM 42.6722 -86.9825 112° Southeast 238 274 17,000  Level Chicago Center
08:04PM 42.6439 -86.8836 111° Southeast 234 269 17,000  Level Chicago Center
08:05PM 42.6178 -86.8014 113° Southeast 237 273 17,000  Level Chicago Center
08:06PM 42.5939 -86.7186 111° Southeast 238 274 17,000  Level Chicago Center
08:07PM 42.5686 -86.6364 113° Southeast 238 274 17,000 -540 Level Chicago Center
08:08PM 42.5414 -86.5500 113° Southeast 247 284 16,000 -1,140 Descending Chicago Center
08:09PM 42.5092 -86.4450 113° Southeast 253 291 14,700 -1,140 Descending Chicago Center
08:10PM 42.4839 -86.3611 112° Southeast 244 281 13,700 -1,080 Descending Chicago Center
08:11PM 42.4608 -86.2842 112° Southeast 226 260 12,500 -1,200 Descending Chicago Center
08:12PM 42.4381 -86.2086 112° Southeast 219 252 11,300 -720 Descending Chicago Center
08:13PM 42.4156 -86.1361 113° Southeast 212 244 11,100 -120 Descending Chicago Center
08:14PM 42.3947 -86.0669 112° Southeast 200 230 11,100  Level Chicago Center
08:15PM 42.3692 -85.9886 114° Southeast 195 224 11,100 -660 Level Chicago Center
08:16PM 42.3481 -85.9178 112° Southeast 201 231 9,800 -1,380 Descending Chicago Center
08:17PM 42.3253 -85.8456 113° Southeast 207 238 8,300 -1,500 Descending Chicago Center
08:18PM 42.3044 -85.7778 113° Southeast 201 231 6,800 -1,080 Descending Chicago Center
08:19PM 42.2850 -85.7139 112° Southeast 191 220 6,100 -360 Descending Chicago Center
08:20PM 42.2503 -85.6703 137° Southeast 172 198 6,100 -480 Level Chicago Center
08:21PM 42.2053 -85.6564 167° South 166 191 5,200 -1,020 Descending Chicago Center
08:22PM 42.1606 -85.6422 167° South 167 192 4,100 -1,020 Descending Chicago Center
08:23PM 42.1575 -85.5767 94° East 151 174 3,100 -1,140 Descending Chicago Center
08:24PM 42.1797 -85.5394 51° Northeast 158 182 1,800 -960 Descending Chicago Center
08:25PM 42.2106 -85.5464 351° North 128 147 1,200 -600 Descending Chicago Center
08:27PM 42.2333 -85.5500 340° North  Level FlightAware Approximate